Time;durP1;ratioP1;P1;durP2;ratioP2;P2;SDS_P1;SDS_P2;PMS_P1;PMS_P2;Temp;Humidity;BMP_temperature;BMP_pressure;BME280_temperature;BME280_humidity;BME280_pressure;Samples;Min_cycle;Max_cycle;Signal;HPM_P1;HPM_P2
2022/10/05 00:01:42;;;;;;;3.20;2.87;;;;;;;8.86;100.00;99665.45;1689050;84;21514;-72
2022/10/05 00:04:18;;;;;;;3.58;3.10;;;;;;;8.87;100.00;99665.84;1695099;84;21610;-72
2022/10/05 00:06:55;;;;;;;9.10;2.85;;;;;;;8.91;100.00;99673.22;1721066;83;21620;-72
2022/10/05 00:09:23;;;;;;;4.08;2.95;;;;;;;8.93;100.00;99673.57;1721549;83;21095;-72
2022/10/05 00:11:49;;;;;;;5.20;3.83;;;;;;;8.93;100.00;99674.03;1720439;83;21059;-72
2022/10/05 00:14:29;;;;;;;5.72;3.17;;;;;;;8.95;100.00;99679.25;1688843;84;21153;-72
2022/10/05 00:16:56;;;;;;;5.53;3.30;;;;;;;8.96;100.00;99677.02;1687116;84;21613;-72
2022/10/05 00:19:32;;;;;;;3.20;2.90;;;;;;;8.98;100.00;99678.71;1689018;84;21232;-72
2022/10/05 00:22:02;;;;;;;5.42;3.00;;;;;;;9.00;100.00;99690.48;1688468;84;21169;-72
2022/10/05 00:24:28;;;;;;;3.33;2.83;;;;;;;9.01;100.00;99690.88;1687928;84;21078;-73
2022/10/05 00:26:55;;;;;;;3.62;2.90;;;;;;;9.02;100.00;99694.78;1688812;84;21002;-72
2022/10/05 00:29:24;;;;;;;5.60;3.15;;;;;;;9.05;100.00;99697.79;1644839;84;21109;-72
2022/10/05 00:31:51;;;;;;;6.95;2.95;;;;;;;9.05;100.00;99696.02;1688093;84;21140;-72
2022/10/05 00:34:17;;;;;;;3.72;2.70;;;;;;;9.08;100.00;99701.66;1688513;84;21309;-73
2022/10/05 00:36:45;;;;;;;4.40;2.60;;;;;;;9.09;100.00;99707.30;1688947;84;21078;-72
2022/10/05 00:39:12;;;;;;;4.67;2.60;;;;;;;9.09;100.00;99701.63;1688627;84;21094;-72
2022/10/05 00:42:05;;;;;;;6.12;3.00;;;;;;;9.08;100.00;99701.20;1688817;84;21130;-72
2022/10/05 00:44:40;;;;;;;6.78;2.85;;;;;;;9.08;100.00;99709.53;1686967;84;21468;-72
2022/10/05 00:47:47;;;;;;;4.70;2.60;;;;;;;9.08;100.00;99708.22;1721139;83;21157;-72
2022/10/05 00:50:34;;;;;;;3.30;2.30;;;;;;;9.09;100.00;99716.48;1688774;84;21059;-72
2022/10/05 00:53:29;;;;;;;4.20;2.95;;;;;;;9.11;100.00;99713.36;1688765;84;21703;-73
2022/10/05 00:56:28;;;;;;;11.25;3.00;;;;;;;9.10;100.00;99717.76;1696180;84;21106;-73
2022/10/05 00:59:23;;;;;;;3.52;2.58;;;;;;;9.10;100.00;99735.28;1694534;84;21148;-72
2022/10/05 01:02:16;;;;;;;4.42;3.00;;;;;;;9.09;100.00;99730.92;1688950;84;21316;-71
2022/10/05 01:05:18;;;;;;;3.42;3.12;;;;;;;9.08;100.00;99735.78;1688652;84;21000;-72
2022/10/05 01:07:59;;;;;;;5.00;2.85;;;;;;;9.08;100.00;99739.72;1688717;84;21130;-72
2022/10/05 01:11:00;;;;;;;3.50;2.50;;;;;;;9.07;100.00;99741.45;1688286;84;21542;-72
2022/10/05 01:13:45;;;;;;;3.70;2.92;;;;;;;9.07;100.00;99750.64;1689304;84;21813;-72
2022/10/05 01:16:20;;;;;;;11.75;3.00;;;;;;;9.07;100.00;99761.14;1689090;84;21119;-73
2022/10/05 01:18:59;;;;;;;3.00;2.80;;;;;;;9.08;100.00;99759.40;1689057;84;21559;-72
2022/10/05 01:21:27;;;;;;;5.08;3.30;;;;;;;9.08;100.00;99767.27;1696269;84;21028;-72
2022/10/05 01:24:24;;;;;;;11.83;5.00;;;;;;;9.07;100.00;99776.04;1688878;84;21573;-72
2022/10/05 01:27:37;;;;;;;5.70;3.50;;;;;;;9.05;100.00;99772.59;1659575;86;21242;-72
2022/10/05 01:30:16;;;;;;;4.70;2.62;;;;;;;9.04;100.00;99774.80;1694447;84;21020;-72
2022/10/05 01:33:18;;;;;;;6.75;2.70;;;;;;;9.02;100.00;99781.39;1694749;84;20916;-72
2022/10/05 01:36:08;;;;;;;5.97;2.45;;;;;;;9.01;100.00;99788.88;1694760;84;21118;-72
2022/10/05 01:38:44;;;;;;;4.45;2.58;;;;;;;9.01;100.00;99790.61;1695358;84;21558;-72
2022/10/05 01:41:23;;;;;;;3.25;2.45;;;;;;;9.01;100.00;99786.67;1687841;84;21225;-72
2022/10/05 01:43:58;;;;;;;7.60;2.60;;;;;;;9.00;100.00;99791.53;1687078;84;21099;-72
2022/10/05 01:46:46;;;;;;;4.72;2.37;;;;;;;8.98;100.00;99798.13;1721283;83;21080;-72
2022/10/05 01:49:33;;;;;;;4.37;2.60;;;;;;;8.99;100.00;99802.45;1688203;83;21059;-72
2022/10/05 01:52:44;;;;;;;4.20;2.17;;;;;;;9.00;100.00;99803.34;1690414;84;21074;-72
2022/10/05 01:55:46;;;;;;;8.93;3.50;;;;;;;9.01;100.00;99807.67;1690932;84;21264;-72
2022/10/05 01:58:56;;;;;;;5.40;2.35;;;;;;;8.98;100.00;99815.61;1702991;83;21064;-72
2022/10/05 02:01:58;;;;;;;3.90;2.10;;;;;;;8.96;100.00;99813.48;1690547;84;21119;-72
2022/10/05 02:04:36;;;;;;;4.30;2.72;;;;;;;8.94;100.00;99818.76;1665422;84;21094;-72
2022/10/05 02:07:08;;;;;;;4.15;2.35;;;;;;;8.92;100.00;99829.28;1686206;84;21566;-72
2022/10/05 02:09:40;;;;;;;8.38;2.50;;;;;;;8.90;100.00;99830.23;1703187;84;21133;-72
2022/10/05 02:12:10;;;;;;;5.03;2.45;;;;;;;8.92;100.00;99829.75;1690597;83;21133;-73
2022/10/05 02:14:40;;;;;;;3.42;2.62;;;;;;;8.92;100.00;99838.93;1690720;84;21572;-72
2022/10/05 02:17:14;;;;;;;3.30;2.95;;;;;;;8.89;100.00;99828.50;1706654;83;21042;-72
2022/10/05 02:19:46;;;;;;;3.80;2.22;;;;;;;8.91;100.00;99843.78;1691036;84;21083;-73
2022/10/05 02:22:30;;;;;;;5.10;2.70;;;;;;;8.90;100.00;99853.39;1703250;84;21488;-72
2022/10/05 02:25:02;;;;;;;3.72;2.40;;;;;;;8.88;100.00;99852.58;1690520;84;21205;-72
2022/10/05 02:27:32;;;;;;;4.50;2.80;;;;;;;8.85;100.00;99847.39;1703292;84;21574;-72
2022/10/05 02:30:04;;;;;;;2.92;2.62;;;;;;;8.84;100.00;99856.17;1691308;84;21062;-72
2022/10/05 02:32:39;;;;;;;3.33;2.30;;;;;;;8.84;100.00;99864.47;1690984;84;21027;-72
2022/10/05 02:35:15;;;;;;;5.62;2.85;;;;;;;8.84;100.00;99865.36;1690599;84;21268;-72
2022/10/05 02:38:19;;;;;;;5.28;2.40;;;;;;;8.84;100.00;99865.36;1691168;84;21104;-73
2022/10/05 02:41:24;;;;;;;7.50;2.63;;;;;;;8.82;100.00;99860.57;1701476;84;21094;-72
2022/10/05 02:44:24;;;;;;;5.40;2.60;;;;;;;8.82;100.00;99863.66;1690927;84;22240;-73
2022/10/05 02:47:02;;;;;;;6.33;3.47;;;;;;;8.79;100.00;99876.38;1703717;83;21028;-72
2022/10/05 02:50:07;;;;;;;6.50;2.80;;;;;;;8.77;100.00;99872.92;1690592;84;21111;-72
2022/10/05 02:53:11;;;;;;;4.72;3.25;;;;;;;8.76;100.00;99872.53;1703176;83;22356;-72
2022/10/05 02:56:20;;;;;;;9.00;3.40;;;;;;;8.75;100.00;99868.17;1690851;84;21076;-72
2022/10/05 02:59:21;;;;;;;6.80;2.92;;;;;;;8.72;100.00;99861.25;1703223;84;21024;-72
2022/10/05 03:01:59;;;;;;;2.65;2.40;;;;;;;8.69;100.00;99874.84;1691106;84;21680;-72
2022/10/05 03:04:40;;;;;;;5.00;2.52;;;;;;;8.69;100.00;99861.73;1691182;84;22275;-72
2022/10/05 03:07:46;;;;;;;4.60;2.50;;;;;;;8.68;100.00;99870.52;1703222;83;21138;-72
2022/10/05 03:10:43;;;;;;;4.05;2.40;;;;;;;8.67;100.00;99874.02;1690752;84;21154;-73
2022/10/05 03:14:02;;;;;;;3.98;2.98;;;;;;;8.66;100.00;99872.31;1701364;83;21099;-73
2022/10/05 03:16:49;;;;;;;5.33;3.10;;;;;;;8.64;100.00;99871.03;1691060;84;21529;-73
2022/10/05 03:19:37;;;;;;;5.78;2.80;;;;;;;8.63;100.00;99880.24;1691274;84;21198;-72
2022/10/05 03:22:27;;;;;;;3.10;2.70;;;;;;;8.61;100.00;99882.01;1703190;84;21086;-72
2022/10/05 03:25:03;;;;;;;3.17;2.70;;;;;;;8.58;100.00;99890.82;1691015;84;21086;-73
2022/10/05 03:27:56;;;;;;;7.80;2.60;;;;;;;8.56;100.00;99904.42;1703336;83;21072;-72
2022/10/05 03:30:25;;;;;;;9.68;5.10;;;;;;;8.53;100.00;99906.64;1703719;84;21102;-73
2022/10/05 03:33:28;;;;;;;8.35;4.45;;;;;;;8.50;100.00;99908.01;1657810;86;21167;-72
2022/10/05 03:36:07;;;;;;;7.05;3.30;;;;;;;8.49;100.00;99908.03;1702889;84;22294;-72
2022/10/05 03:39:04;;;;;;;5.45;3.02;;;;;;;8.47;100.00;99897.61;1691369;84;21494;-72
2022/10/05 03:41:52;;;;;;;4.00;3.00;;;;;;;8.47;100.00;99899.34;1690908;84;21015;-71
2022/10/05 03:44:32;;;;;;;5.97;2.83;;;;;;;8.49;100.00;99911.97;1654089;84;21526;-72
2022/10/05 03:47:31;;;;;;;2.87;2.50;;;;;;;8.49;100.00;99918.10;1685337;84;21220;-71
2022/10/05 03:50:23;;;;;;;8.08;2.75;;;;;;;8.48;100.00;99911.58;1689893;84;21083;-71
2022/10/05 03:52:56;;;;;;;7.12;3.05;;;;;;;8.47;100.00;99920.33;1703374;83;21016;-73
2022/10/05 03:55:58;;;;;;;6.80;2.85;;;;;;;8.45;100.00;99915.10;1692202;84;21086;-72
2022/10/05 03:58:33;;;;;;;6.08;2.62;;;;;;;8.45;100.00;99918.19;1703314;83;21166;-72
2022/10/05 04:01:04;;;;;;;3.83;3.02;;;;;;;8.43;100.00;99912.97;1690314;84;21539;-72
2022/10/05 04:03:47;;;;;;;3.27;2.75;;;;;;;8.41;100.00;99918.66;1702879;84;21561;-72
2022/10/05 04:06:25;;;;;;;6.12;3.42;;;;;;;8.42;100.00;99924.76;1690683;84;21138;-73
2022/10/05 04:09:14;;;;;;;3.60;2.90;;;;;;;8.40;100.00;99927.41;1702704;84;21104;-72
2022/10/05 04:12:14;;;;;;;3.02;2.72;;;;;;;8.39;100.00;99923.08;1691124;84;21727;-72
2022/10/05 04:14:47;;;;;;;8.60;3.02;;;;;;;8.39;100.00;99929.63;1703500;83;21164;-72
2022/10/05 04:17:33;;;;;;;6.45;2.62;;;;;;;8.36;100.00;99927.92;1691242;84;21095;-72
2022/10/05 04:20:18;;;;;;;3.45;2.72;;;;;;;8.34;100.00;99931.02;1690893;84;21058;-71
2022/10/05 04:23:11;;;;;;;3.08;2.77;;;;;;;8.33;100.00;99929.73;1690967;84;21126;-72
2022/10/05 04:25:56;;;;;;;7.70;4.25;;;;;;;8.31;100.00;99936.78;1703127;83;21071;-72
2022/10/05 04:28:42;;;;;;;13.98;5.37;;;;;;;8.29;100.00;99922.84;1690995;84;22274;-72
2022/10/05 04:31:13;;;;;;;12.63;4.87;;;;;;;8.26;100.00;99927.67;1659912;83;21024;-71
2022/10/05 04:33:40;;;;;;;14.58;6.40;;;;;;;8.24;100.00;99945.63;1683476;84;21086;-72
2022/10/05 04:36:23;;;;;;;14.80;5.80;;;;;;;8.18;100.00;99937.44;1690767;84;21027;-72
2022/10/05 04:39:07;;;;;;;10.75;5.35;;;;;;;8.17;100.00;99947.06;1685146;84;21050;-72
2022/10/05 04:41:59;;;;;;;16.82;7.25;;;;;;;8.17;100.00;99945.75;1694456;83;21213;-72
2022/10/05 04:44:51;;;;;;;17.95;7.40;;;;;;;8.19;100.00;99955.76;1651230;84;21018;-73
2022/10/05 04:47:59;;;;;;;15.50;5.60;;;;;;;8.21;100.00;99961.44;1703301;84;21074;-72
2022/10/05 04:50:54;;;;;;;5.75;3.27;;;;;;;8.23;100.00;99958.33;1690846;84;21518;-72
2022/10/05 04:53:27;;;;;;;;;;;;;;;8.28;100.00;99961.73;1703878;83;20936;-71
2022/10/05 04:56:17;;;;;;;6.75;3.20;;;;;;;8.29;100.00;99963.02;1700855;84;21105;-72
2022/10/05 04:59:23;;;;;;;6.80;3.60;;;;;;;8.31;100.00;99978.72;1637302;85;21487;-72
2022/10/05 05:02:14;;;;;;;5.47;3.37;;;;;;;8.32;100.00;99980.44;1590027;89;21126;-72
2022/10/05 05:05:17;;;;;;;5.58;3.47;;;;;;;8.35;100.00;99980.38;1555519;91;21114;-71
2022/10/05 05:08:22;;;;;;;6.50;3.37;;;;;;;8.39;100.00;99991.25;1682439;84;21082;-71
2022/10/05 05:11:17;;;;;;;5.08;2.80;;;;;;;8.40;100.00;99996.89;1670446;85;21244;-73
2022/10/05 05:14:35;;;;;;;3.22;2.92;;;;;;;8.43;100.00;100001.27;1700696;84;21565;-72
2022/10/05 05:17:45;;;;;;;7.80;3.12;;;;;;;8.47;100.00;100013.42;1668722;85;21074;-72
2022/10/05 05:20:20;;;;;;;4.22;2.72;;;;;;;8.50;100.00;100011.59;1695477;84;21012;-72
2022/10/05 05:23:25;;;;;;;5.00;3.20;;;;;;;8.52;100.00;100009.84;1669543;85;21193;-72
2022/10/05 05:26:09;;;;;;;;;;;;;;;8.55;100.00;100012.84;1703126;83;21258;-73
2022/10/05 05:28:58;;;;;;;6.22;3.60;;;;;;;8.60;100.00;100021.48;1695114;84;20214;-72
2022/10/05 05:31:46;;;;;;;10.23;3.52;;;;;;;8.63;100.00;100024.52;1668667;85;21060;-72
2022/10/05 05:34:43;;;;;;;5.60;3.47;;;;;;;8.64;100.00;100024.91;1695379;84;21119;-71
2022/10/05 05:37:35;;;;;;;12.58;3.55;;;;;;;8.65;100.00;100024.88;1658142;85;21083;-72
2022/10/05 05:40:31;;;;;;;9.55;3.55;;;;;;;8.68;100.00;100016.11;1647468;86;21155;-72
2022/10/05 05:43:25;;;;;;;3.55;3.12;;;;;;;8.71;100.00;100031.34;1673330;85;21004;-72
2022/10/05 05:46:26;;;;;;;7.30;3.50;;;;;;;8.73;100.00;100024.75;1695932;84;21024;-72
2022/10/05 05:48:55;;;;;;;9.00;3.42;;;;;;;8.78;100.00;100032.09;1671206;85;21067;-73
2022/10/05 05:51:34;;;;;;;4.40;3.65;;;;;;;8.80;100.00;100034.23;1695677;84;21110;-72
2022/10/05 05:54:35;;;;;;;4.47;3.65;;;;;;;8.83;100.00;100042.05;1687862;84;21836;-72
2022/10/05 05:57:25;;;;;;;7.30;4.22;;;;;;;8.86;100.00;100035.44;1694904;84;21476;-73
2022/10/05 06:00:02;;;;;;;7.17;4.22;;;;;;;8.89;100.00;100045.88;1694305;84;21620;-72
2022/10/05 06:02:49;;;;;;;4.87;3.30;;;;;;;8.91;100.00;100052.41;1693003;84;21016;-71
2022/10/05 06:05:33;;;;;;;10.78;4.78;;;;;;;8.96;100.00;100057.55;1689253;84;21098;-72
2022/10/05 06:08:18;;;;;;;12.90;6.50;;;;;;;9.00;100.00;100052.67;1695064;84;22003;-72
2022/10/05 06:10:51;;;;;;;8.68;4.05;;;;;;;9.03;100.00;100050.84;1688360;84;21090;-72
2022/10/05 06:13:27;;;;;;;10.90;6.95;;;;;;;9.07;99.87;100058.21;1667437;84;21506;-73
2022/10/05 06:16:09;;;;;;;7.83;5.25;;;;;;;9.10;99.59;100056.84;1688473;84;21040;-73
2022/10/05 06:18:40;;;;;;;7.60;3.75;;;;;;;9.14;99.38;100062.44;1674125;84;21115;-72
2022/10/05 06:21:25;;;;;;;4.85;4.15;;;;;;;9.18;98.42;100070.69;1666955;84;22077;-72
2022/10/05 06:24:03;;;;;;;6.00;3.20;;;;;;;9.25;98.33;100077.53;1686885;83;21078;-72
2022/10/05 06:27:25;;;;;;;4.10;3.12;;;;;;;9.29;97.01;100080.50;1721324;83;21082;-71
2022/10/05 06:30:12;;;;;;;9.10;5.92;;;;;;;9.33;96.79;100089.64;1688713;84;21087;-73
2022/10/05 06:33:07;;;;;;;3.75;3.40;;;;;;;9.39;96.87;100080.33;1690206;83;21047;-72
2022/10/05 06:36:05;;;;;;;4.65;3.30;;;;;;;9.52;96.55;100093.63;1702888;83;21240;-72
2022/10/05 06:39:13;;;;;;;9.90;5.70;;;;;;;9.67;96.51;100100.32;1721659;83;20999;-72
2022/10/05 06:42:02;;;;;;;15.40;5.58;;;;;;;9.73;95.37;100090.11;1721371;83;21122;-74
2022/10/05 06:45:23;;;;;;;13.68;5.83;;;;;;;9.74;94.32;100106.31;1688722;84;21067;-72
2022/10/05 06:48:05;;;;;;;7.90;4.03;;;;;;;9.74;93.98;100100.59;1687798;84;21505;-73
2022/10/05 06:51:26;;;;;;;17.00;6.30;;;;;;;9.73;93.39;100109.36;1688668;83;21165;-72
2022/10/05 06:54:09;;;;;;;12.95;5.37;;;;;;;9.74;92.68;100098.42;1705617;83;21752;-72
2022/10/05 06:56:44;;;;;;;8.43;3.90;;;;;;;9.87;94.01;100101.20;1664638;85;21020;-72
2022/10/05 06:59:23;;;;;;;5.00;3.33;;;;;;;9.99;92.51;100098.74;1703071;83;20976;-72
2022/10/05 07:02:08;;;;;;;8.18;3.77;;;;;;;10.03;91.96;100102.55;1707093;83;21099;-73
2022/10/05 07:05:12;;;;;;;3.72;2.33;;;;;;;10.04;91.54;100101.67;1665899;85;22595;-72
2022/10/05 07:08:11;;;;;;;3.33;2.20;;;;;;;10.08;90.72;100113.44;1655191;86;21096;-72
2022/10/05 07:11:10;;;;;;;5.62;2.60;;;;;;;10.11;90.26;100108.11;1653714;86;21143;-73
2022/10/05 07:14:08;;;;;;;2.33;1.80;;;;;;;10.18;90.49;100114.48;1657716;86;21581;-72
2022/10/05 07:17:07;;;;;;;2.50;2.15;;;;;;;10.26;90.06;100119.58;1657829;86;21113;-72
2022/10/05 07:20:18;;;;;;;2.95;2.12;;;;;;;10.32;89.74;100117.28;1656893;86;21520;-73
2022/10/05 07:23:14;;;;;;;4.67;2.30;;;;;;;10.36;88.41;100127.70;1657874;86;21078;-73
2022/10/05 07:26:01;;;;;;;5.90;2.65;;;;;;;10.44;88.79;100132.78;1658235;86;21046;-72
2022/10/05 07:29:00;;;;;;;4.42;2.90;;;;;;;10.57;88.02;100133.33;1657761;86;21626;-72
2022/10/05 07:32:04;;;;;;;6.53;2.30;;;;;;;10.65;87.40;100134.01;1657697;86;21767;-73
2022/10/05 07:35:00;;;;;;;6.65;3.20;;;;;;;10.78;87.10;100145.95;1664597;85;21582;-73
2022/10/05 07:37:56;;;;;;;3.52;2.00;;;;;;;10.90;87.26;100139.97;1702957;83;21004;-72
2022/10/05 07:40:41;;;;;;;3.75;2.58;;;;;;;10.99;85.49;100142.81;1664286;85;21138;-74
2022/10/05 07:43:34;;;;;;;3.00;2.42;;;;;;;11.00;85.94;100154.63;1682314;84;21083;-73
2022/10/05 07:46:28;;;;;;;6.17;3.10;;;;;;;11.04;84.67;100156.26;1664902;85;21079;-73
2022/10/05 07:49:12;;;;;;;2.62;2.42;;;;;;;11.17;85.58;100158.59;1665263;85;21791;-73
2022/10/05 07:51:43;;;;;;;3.15;2.80;;;;;;;11.33;84.15;100158.56;1665286;85;21079;-73
2022/10/05 07:54:43;;;;;;;2.92;2.22;;;;;;;11.43;82.84;100158.75;1718169;83;21021;-72
2022/10/05 07:57:24;;;;;;;4.45;2.40;;;;;;;11.49;82.20;100165.14;1689389;84;21058;-74
2022/10/05 08:00:06;;;;;;;6.35;2.42;;;;;;;11.58;82.44;100146.88;1689530;84;21149;-72
2022/10/05 08:03:00;;;;;;;5.40;2.52;;;;;;;11.61;80.22;100150.75;1689114;84;21589;-73
2022/10/05 08:05:32;;;;;;;2.80;2.20;;;;;;;11.64;79.78;100143.22;1689011;84;21081;-72
2022/10/05 08:08:19;;;;;;;3.42;2.40;;;;;;;11.64;79.45;100147.18;1689543;84;21601;-73
2022/10/05 08:11:06;;;;;;;4.25;2.15;;;;;;;11.58;78.47;100132.84;1667126;84;21058;-73
2022/10/05 08:13:59;;;;;;;2.20;2.00;;;;;;;11.48;78.00;100142.78;1714259;83;21013;-72
2022/10/05 08:16:28;;;;;;;6.72;2.80;;;;;;;11.38;77.71;100143.52;1689587;84;21155;-72
2022/10/05 08:19:01;;;;;;;5.05;2.58;;;;;;;11.30;78.61;100150.30;1713572;83;21525;-73
2022/10/05 08:21:33;;;;;;;3.37;2.47;;;;;;;11.31;79.05;100149.41;1689370;84;21110;-72
2022/10/05 08:24:07;;;;;;;4.37;1.90;;;;;;;11.34;79.10;100145.81;1714410;83;21066;-72
2022/10/05 08:27:05;;;;;;;6.72;2.92;;;;;;;11.37;78.93;100152.31;1689103;84;20979;-73
2022/10/05 08:29:43;;;;;;;4.80;2.30;;;;;;;11.37;79.07;100156.73;1689138;84;22199;-72
2022/10/05 08:32:23;;;;;;;2.42;2.22;;;;;;;11.26;79.04;100160.53;1687758;84;21058;-72
2022/10/05 08:35:21;;;;;;;5.40;2.30;;;;;;;11.22;78.99;100164.59;1689778;84;21085;-74
2022/10/05 08:37:47;;;;;;;2.67;2.05;;;;;;;11.22;78.72;100163.28;1689426;84;21047;-72
2022/10/05 08:40:47;;;;;;;1.72;1.62;;;;;;;11.31;79.48;100156.00;1689474;84;21153;-72
2022/10/05 08:43:34;;;;;;;3.72;1.77;;;;;;;11.49;78.20;100151.97;1689421;84;21231;-72
2022/10/05 08:46:37;;;;;;;5.45;1.40;;;;;;;11.63;76.78;100157.30;1689254;84;21595;-73
2022/10/05 08:49:12;;;;;;;3.85;1.70;;;;;;;11.69;74.21;100168.53;1689613;84;21094;-74
2022/10/05 08:52:07;;;;;;;1.67;1.47;;;;;;;11.65;74.26;100169.97;1689914;84;21018;-73
2022/10/05 08:55:07;;;;;;;5.22;1.60;;;;;;;11.59;75.33;100167.53;1690756;84;21153;-73
2022/10/05 08:57:52;;;;;;;1.42;1.32;;;;;;;11.52;73.19;100183.51;1690551;84;22420;-72
2022/10/05 09:00:22;;;;;;;4.60;1.80;;;;;;;11.41;73.73;100184.25;1703299;83;21087;-73
2022/10/05 09:03:12;;;;;;;5.47;1.90;;;;;;;11.35;75.35;100185.75;1691076;84;21042;-72
2022/10/05 09:05:59;;;;;;;2.70;2.05;;;;;;;11.40;76.69;100202.73;1703383;83;21146;-72
2022/10/05 09:08:53;;;;;;;2.42;1.70;;;;;;;11.45;76.17;100195.13;1690844;84;21066;-73
2022/10/05 09:11:34;;;;;;;1.82;1.70;;;;;;;11.43;74.48;100201.34;1703038;83;21974;-72
2022/10/05 09:14:29;;;;;;;1.82;1.72;;;;;;;11.43;74.80;100201.34;1691364;84;21177;-72
2022/10/05 09:17:31;;;;;;;3.50;1.98;;;;;;;11.49;74.88;100205.98;1702967;83;21146;-72
2022/10/05 09:20:07;;;;;;;1.50;1.40;;;;;;;11.60;74.70;100206.14;1640973;84;21082;-72
2022/10/05 09:22:59;;;;;;;3.72;1.55;;;;;;;11.62;73.51;100204.35;1702483;84;21044;-71
2022/10/05 09:25:55;;;;;;;2.47;1.62;;;;;;;11.59;73.62;100193.42;1684471;84;21158;-72
2022/10/05 09:28:56;;;;;;;2.15;1.50;;;;;;;11.55;72.76;100196.18;1690540;84;21138;-71
2022/10/05 09:32:12;;;;;;;3.27;1.75;;;;;;;11.51;72.55;100192.31;1690397;84;21099;-72
2022/10/05 09:34:54;;;;;;;;;;;;;;;11.56;73.20;100200.56;1690410;83;21691;-72
2022/10/05 09:38:01;;;;;;;2.85;1.90;;;;;;;11.66;73.80;100196.30;1702872;83;20193;-72
2022/10/05 09:40:51;;;;;;;4.10;1.57;;;;;;;11.79;73.50;100207.36;1690920;84;21104;-72
2022/10/05 09:43:56;;;;;;;4.17;2.40;;;;;;;11.89;72.24;100193.00;1703180;83;21082;-72
2022/10/05 09:46:54;;;;;;;4.45;1.80;;;;;;;11.97;72.36;100206.44;1690942;84;21451;-72
2022/10/05 09:50:10;;;;;;;4.80;1.98;;;;;;;11.96;72.03;100199.46;1703015;84;21071;-72
2022/10/05 09:53:14;;;;;;;4.22;2.83;;;;;;;11.89;72.82;100203.55;1691162;84;21036;-72
2022/10/05 09:56:19;;;;;;;5.35;3.30;;;;;;;11.87;72.52;100204.52;1702779;83;21119;-72
2022/10/05 09:59:24;;;;;;;2.75;2.17;;;;;;;11.84;73.52;100202.82;1723576;83;21121;-72
2022/10/05 10:02:15;;;;;;;3.33;2.08;;;;;;;11.87;73.66;100206.69;1691141;84;28665;-71
2022/10/05 10:05:18;;;;;;;2.12;1.40;;;;;;;11.94;74.29;100200.82;1692133;83;21154;-72
2022/10/05 10:08:07;;;;;;;2.25;1.27;;;;;;;12.04;74.30;100202.73;1690357;82;21186;-71
2022/10/05 10:10:59;;;;;;;3.33;1.70;;;;;;;12.16;74.23;100212.91;1690429;84;21062;-73
2022/10/05 10:13:55;;;;;;;1.70;1.60;;;;;;;12.23;73.94;100203.89;1702438;83;21048;-72
2022/10/05 10:16:52;;;;;;;3.52;1.62;;;;;;;12.25;72.63;100203.42;1662728;84;21090;-72
2022/10/05 10:19:45;;;;;;;3.08;2.00;;;;;;;12.33;73.35;100208.91;1703084;84;21068;-72
2022/10/05 10:23:07;;;;;;;1.82;1.67;;;;;;;12.42;73.93;100213.45;1703346;83;20992;-72
2022/10/05 10:26:19;;;;;;;2.95;1.60;;;;;;;12.49;71.36;100212.80;1690393;84;21243;-73
2022/10/05 10:29:39;;;;;;;3.58;1.57;;;;;;;12.54;71.34;100209.56;1702992;84;21068;-73
2022/10/05 10:32:46;;;;;;;3.62;1.77;;;;;;;12.69;72.46;100212.61;1638552;86;21028;-72
2022/10/05 10:35:34;;;;;;;3.05;1.57;;;;;;;12.77;71.95;100215.87;1723382;83;21015;-72
2022/10/05 10:38:29;;;;;;;1.50;1.40;;;;;;;12.72;70.06;100226.56;1691185;84;21095;-73
2022/10/05 10:41:42;;;;;;;2.20;1.60;;;;;;;12.68;70.15;100229.38;1702792;83;21298;-72
2022/10/05 10:44:33;;;;;;;3.37;1.70;;;;;;;12.61;70.10;100224.28;1703773;83;21050;-72
2022/10/05 10:47:27;;;;;;;3.72;1.77;;;;;;;12.53;70.29;100217.06;1702879;83;21083;-72
2022/10/05 10:50:17;;;;;;;7.30;1.30;;;;;;;12.49;69.11;100214.13;1703248;83;21464;-73
2022/10/05 10:53:16;;;;;;;4.08;1.50;;;;;;;12.45;69.15;100215.97;1689918;84;21074;-72
2022/10/05 10:56:07;;;;;;;2.42;1.80;;;;;;;12.44;68.96;100212.09;1723534;83;21850;-72
2022/10/05 10:59:25;;;;;;;2.80;1.65;;;;;;;12.43;68.51;100211.20;1689227;84;21075;-72
2022/10/05 11:02:27;;;;;;;5.12;1.55;;;;;;;12.42;69.47;100203.33;1689168;84;21070;-72
2022/10/05 11:05:20;;;;;;;4.92;1.50;;;;;;;12.44;70.06;100214.72;1689515;84;21157;-73
2022/10/05 11:08:07;;;;;;;4.60;1.60;;;;;;;12.48;69.67;100217.66;1688948;84;21062;-73
2022/10/05 11:11:01;;;;;;;4.53;2.08;;;;;;;12.51;69.60;100220.21;1713765;83;20930;-73
2022/10/05 11:14:15;;;;;;;3.83;1.72;;;;;;;12.53;69.50;100213.10;1689077;84;21130;-73
2022/10/05 11:17:19;;;;;;;1.50;1.40;;;;;;;12.55;69.58;100210.41;1688526;84;21125;-72
2022/10/05 11:20:10;;;;;;;2.27;1.75;;;;;;;12.51;69.21;100221.53;1689514;84;21090;-73
2022/10/05 11:23:23;;;;;;;1.75;1.50;;;;;;;12.45;69.34;100207.20;1689567;84;21613;-72
2022/10/05 11:26:18;;;;;;;3.02;1.70;;;;;;;12.43;69.51;100205.06;1689040;84;21588;-73
2022/10/05 11:29:24;;;;;;;4.78;1.98;;;;;;;12.43;70.03;100203.75;1689320;84;21574;-72
2022/10/05 11:32:43;;;;;;;3.72;1.70;;;;;;;12.43;70.80;100209.87;1689829;84;21077;-72
2022/10/05 11:35:36;;;;;;;1.60;1.40;;;;;;;12.43;69.55;100206.39;1688900;84;21066;-73
2022/10/05 11:38:29;;;;;;;1.85;1.50;;;;;;;12.40;70.12;100209.12;1689589;84;21118;-72
2022/10/05 11:41:22;;;;;;;3.62;1.80;;;;;;;12.38;70.29;100214.91;1689196;84;21250;-72
2022/10/05 11:44:03;;;;;;;1.77;1.57;;;;;;;12.38;70.05;100201.71;1689512;84;21994;-73
2022/10/05 11:46:40;;;;;;;4.15;1.90;;;;;;;12.34;69.46;100202.70;1688775;84;21063;-72
2022/10/05 11:49:32;;;;;;;2.67;1.80;;;;;;;12.32;70.21;100204.53;1689501;84;21177;-72
2022/10/05 11:52:23;;;;;;;7.47;1.65;;;;;;;12.32;69.52;100204.53;1689601;84;21648;-72
2022/10/05 11:55:05;;;;;;;2.00;1.55;;;;;;;12.32;70.44;100203.20;1690287;84;20988;-72
2022/10/05 11:57:36;;;;;;;2.77;1.47;;;;;;;12.33;70.28;100214.19;1703344;83;21091;-73
2022/10/05 12:00:09;;;;;;;2.60;1.47;;;;;;;12.31;70.17;100214.69;1690972;84;21546;-73
2022/10/05 12:02:59;;;;;;;5.22;1.60;;;;;;;12.29;70.15;100219.13;1672314;83;21083;-72
2022/10/05 12:05:48;;;;;;;1.60;1.50;;;;;;;12.28;70.46;100226.66;1695552;84;21043;-72
2022/10/05 12:08:35;;;;;;;6.75;2.00;;;;;;;12.28;71.02;100225.34;1690900;84;21729;-74
2022/10/05 12:11:25;;;;;;;4.00;2.22;;;;;;;12.26;70.43;100224.91;1703509;83;21131;-73
2022/10/05 12:14:03;;;;;;;3.85;2.10;;;;;;;12.25;70.92;100225.84;1691313;84;21028;-72
2022/10/05 12:16:54;;;;;;;5.30;2.75;;;;;;;12.25;71.40;100228.91;1680478;84;21561;-73
2022/10/05 12:19:30;;;;;;;3.27;2.35;;;;;;;12.25;71.47;100245.63;1683479;84;21089;-72
2022/10/05 12:22:14;;;;;;;2.90;1.67;;;;;;;12.24;71.48;100245.67;1689643;84;21238;-71
2022/10/05 12:25:06;;;;;;;3.08;1.45;;;;;;;12.23;70.96;100247.42;1689478;84;21342;-72
2022/10/05 12:27:40;;;;;;;8.00;1.82;;;;;;;12.22;71.03;100251.00;1703022;84;21051;-73
2022/10/05 12:30:50;;;;;;;3.70;2.02;;;;;;;12.24;71.42;100253.13;1691065;84;21063;-73
2022/10/05 12:33:33;;;;;;;1.87;1.60;;;;;;;12.26;71.46;100253.94;1703197;83;21027;-73
2022/10/05 12:36:24;;;;;;;3.60;1.90;;;;;;;12.26;71.51;100259.22;1703152;83;21134;-72
2022/10/05 12:39:08;;;;;;;5.75;1.67;;;;;;;12.28;71.66;100257.00;1698722;83;21102;-73
2022/10/05 12:41:44;;;;;;;3.85;1.90;;;;;;;12.32;71.75;100266.53;1688127;84;21158;-72
2022/10/05 12:44:51;;;;;;;2.55;1.60;;;;;;;12.35;71.61;100265.13;1703112;84;21282;-72
2022/10/05 12:47:48;;;;;;;1.52;1.30;;;;;;;12.36;71.46;100265.55;1673490;83;21589;-72
2022/10/05 12:50:26;;;;;;;2.33;1.65;;;;;;;12.37;71.27;100265.94;1685810;84;21170;-72
2022/10/05 12:53:13;;;;;;;3.27;1.75;;;;;;;12.35;70.80;100265.98;1703046;83;20931;-72
2022/10/05 12:56:04;;;;;;;2.95;1.80;;;;;;;12.34;71.52;100272.19;1690861;84;21110;-73
2022/10/05 12:59:13;;;;;;;2.05;1.72;;;;;;;12.35;71.88;100269.09;1691050;84;21153;-72
2022/10/05 13:01:51;;;;;;;5.92;3.10;;;;;;;12.34;70.63;100264.71;1703514;83;21448;-71
2022/10/05 13:04:45;;;;;;;5.78;3.12;;;;;;;12.30;70.81;100263.94;1690917;84;21084;-73
2022/10/05 13:07:32;;;;;;;12.40;7.78;;;;;;;12.28;70.65;100274.15;1702997;84;21071;-72
2022/10/05 13:10:32;;;;;;;29.70;15.95;;;;;;;12.25;71.52;100272.02;1691431;84;21074;-72
2022/10/05 13:13:22;;;;;;;11.10;6.55;;;;;;;12.24;71.14;100276.88;1690856;84;21019;-72